Time;durP1;ratioP1;P1;durP2;ratioP2;P2;SDS_P1;SDS_P2;PMS_P1;PMS_P2;Temp;Humidity;BMP_temperature;BMP_pressure;BME280_temperature;BME280_humidity;BME280_pressure;Samples;Min_cycle;Max_cycle;Signal;HPM_P1;HPM_P2
2023/03/10 00:00:03;;;;;;;18.52;8.45;;;;;;;-1.75;49.46;98074.36;1783154;78;21507;-72
2023/03/10 00:02:29;;;;;;;16.30;7.40;;;;;;;-1.82;49.34;98083.05;1777054;78;21017;-72
2023/03/10 00:04:56;;;;;;;15.05;7.72;;;;;;;-1.87;49.58;98082.34;1782942;78;21006;-72
2023/03/10 00:07:23;;;;;;;14.18;7.67;;;;;;;-1.89;49.68;98080.25;1779384;77;21097;-70
2023/03/10 00:09:52;;;;;;;13.62;6.60;;;;;;;-1.91;49.74;98076.88;1786235;78;20993;-72
2023/03/10 00:12:18;;;;;;;19.60;7.45;;;;;;;-1.94;49.78;98070.55;1778509;78;21069;-70
2023/03/10 00:14:45;;;;;;;14.73;7.37;;;;;;;-1.93;49.94;98061.99;1781079;78;20986;-72
2023/03/10 00:17:12;;;;;;;15.53;7.70;;;;;;;-1.96;50.03;98072.30;1784998;77;21155;-72
2023/03/10 00:19:38;;;;;;;16.93;7.87;;;;;;;-1.97;50.17;98069.35;1782072;78;21053;-67
2023/03/10 00:22:05;;;;;;;13.08;6.83;;;;;;;-2.01;50.26;98079.27;1778837;78;21508;-72
2023/03/10 00:24:32;;;;;;;14.93;8.10;;;;;;;-2.01;50.19;98067.75;1780584;78;21049;-71
2023/03/10 00:26:58;;;;;;;18.67;10.13;;;;;;;-1.97;50.40;98060.40;1781394;78;21034;-69
2023/03/10 00:29:25;;;;;;;23.18;9.35;;;;;;;-1.95;50.37;98059.48;1781637;78;21081;-70
2023/03/10 00:31:51;;;;;;;18.27;8.83;;;;;;;-1.84;50.72;98049.01;1783344;78;20911;-71
2023/03/10 00:34:18;;;;;;;16.17;7.97;;;;;;;-1.84;50.72;98049.01;1785149;78;20976;-73
2023/03/10 00:36:44;;;;;;;18.73;8.33;;;;;;;-1.82;50.74;98043.39;1783178;78;20989;-73
2023/03/10 00:39:13;;;;;;;13.25;7.47;;;;;;;-1.83;50.69;98047.67;1782070;78;21460;-70
2023/03/10 00:41:39;;;;;;;11.45;6.97;;;;;;;-1.82;50.66;98038.27;1781056;78;21136;-72
2023/03/10 00:44:08;;;;;;;13.60;8.10;;;;;;;-1.84;50.70;98032.38;1745284;80;21050;-67
2023/03/10 00:46:37;;;;;;;11.18;7.05;;;;;;;-1.86;50.92;98023.89;1785902;78;21065;-67
2023/03/10 00:49:06;;;;;;;13.40;7.22;;;;;;;-1.83;51.00;98025.09;1778287;78;21106;-69
2023/03/10 00:51:34;;;;;;;12.63;7.35;;;;;;;-1.82;50.96;98013.97;1773095;79;21532;-72
2023/03/10 00:54:02;;;;;;;15.28;7.97;;;;;;;-1.81;51.12;98018.23;1771302;79;21057;-71
2023/03/10 00:56:30;;;;;;;13.35;8.18;;;;;;;-1.77;51.14;98008.75;1772491;79;21080;-71
2023/03/10 00:58:59;;;;;;;17.50;8.33;;;;;;;-1.77;51.29;98008.30;1773755;79;20999;-72
2023/03/10 01:01:31;;;;;;;15.72;7.65;;;;;;;-1.72;51.18;98005.20;1770917;79;21048;-62
2023/03/10 01:04:04;;;;;;;14.55;7.72;;;;;;;-1.74;51.40;97999.27;1782029;79;21013;-72
2023/03/10 01:06:30;;;;;;;16.12;8.05;;;;;;;-1.78;51.60;97995.13;1770470;79;21073;-71
2023/03/10 01:08:56;;;;;;;13.45;7.87;;;;;;;-1.74;51.58;97990.76;1770122;79;20975;-68
2023/03/10 01:11:28;;;;;;;12.40;7.30;;;;;;;-1.80;51.58;97986.64;1770815;79;21028;-72
2023/03/10 01:14:01;;;;;;;17.87;7.80;;;;;;;-1.77;51.94;97975.05;1767971;79;21001;-63
2023/03/10 01:16:28;;;;;;;11.18;6.53;;;;;;;-1.74;51.88;97977.52;1775080;79;20945;-71
2023/03/10 01:18:56;;;;;;;15.45;7.05;;;;;;;-1.71;51.96;97971.07;1768949;79;21029;-70
2023/03/10 01:21:31;;;;;;;13.03;6.58;;;;;;;-1.64;51.88;97971.74;1775401;79;20962;-71
2023/03/10 01:23:59;;;;;;;9.28;5.85;;;;;;;-1.70;51.95;97971.45;1769006;79;20982;-71
2023/03/10 01:26:26;;;;;;;9.95;5.80;;;;;;;-1.73;52.14;97970.27;1772594;79;20983;-70
2023/03/10 01:28:52;;;;;;;11.53;6.15;;;;;;;-1.76;52.23;97962.67;1776527;79;20957;-65
2023/03/10 01:31:19;;;;;;;11.22;6.03;;;;;;;-1.82;52.35;97962.80;1778766;79;21533;-68
2023/03/10 01:33:46;;;;;;;6.80;4.90;;;;;;;-1.88;52.48;97957.84;1769470;78;21521;-69
2023/03/10 01:36:18;;;;;;;10.13;5.25;;;;;;;-1.94;52.85;97963.96;1769396;79;22293;-67
2023/03/10 01:38:48;;;;;;;9.85;5.03;;;;;;;-1.98;53.00;97961.53;1771295;79;21121;-64
2023/03/10 01:41:15;;;;;;;8.90;4.58;;;;;;;-2.08;53.05;97947.67;1771846;79;20956;-67
2023/03/10 01:43:45;;;;;;;8.38;5.28;;;;;;;-2.12;53.36;97943.98;1774445;79;21000;-69
2023/03/10 01:46:43;;;;;;;10.38;4.90;;;;;;;-2.19;53.29;97944.55;1770350;79;21477;-68
2023/03/10 01:49:18;;;;;;;8.60;4.35;;;;;;;-2.23;53.51;97942.95;1769642;79;21053;-66
2023/03/10 01:51:56;;;;;;;8.83;4.40;;;;;;;-2.28;53.68;97938.39;1736433;79;20985;-65
2023/03/10 01:54:28;;;;;;;11.50;5.08;;;;;;;-2.29;53.76;97921.38;1758564;79;21123;-71
2023/03/10 01:56:56;;;;;;;10.35;5.00;;;;;;;-2.31;54.04;97928.23;1761117;79;21435;-62
2023/03/10 01:59:27;;;;;;;8.65;4.78;;;;;;;-2.32;54.26;97918.91;1744207;79;21003;-66
2023/03/10 02:01:56;;;;;;;9.93;4.67;;;;;;;-2.34;54.31;97927.03;1762783;79;21014;-63
2023/03/10 02:04:31;;;;;;;7.95;4.85;;;;;;;-2.33;54.65;97914.64;1764678;79;20950;-65
2023/03/10 02:07:01;;;;;;;8.13;4.67;;;;;;;-2.32;54.78;97914.63;1768202;79;21086;-66
2023/03/10 02:09:28;;;;;;;11.60;5.30;;;;;;;-2.32;55.15;97912.51;1770724;79;20971;-60
2023/03/10 02:12:00;;;;;;;8.50;4.30;;;;;;;-2.34;55.12;97901.47;1771333;78;21044;-62
2023/03/10 02:14:26;;;;;;;8.35;4.53;;;;;;;-2.36;55.08;97899.39;1766209;79;20975;-60
2023/03/10 02:16:53;;;;;;;7.78;4.58;;;;;;;-2.38;55.20;97898.58;1769971;79;21018;-59
2023/03/10 02:19:54;;;;;;;9.20;4.90;;;;;;;-2.43;55.68;97897.87;1772398;79;20969;-60
2023/03/10 02:22:21;;;;;;;8.15;5.10;;;;;;;-2.48;56.24;97898.81;1768595;79;21042;-72
2023/03/10 02:24:55;;;;;;;8.28;4.60;;;;;;;-2.48;56.02;97886.03;1733295;81;21658;-65
2023/03/10 02:27:31;;;;;;;9.68;4.95;;;;;;;-2.53;56.56;97894.23;1706000;81;21009;-71
2023/03/10 02:30:16;;;;;;;9.88;4.45;;;;;;;-2.60;56.82;97876.11;1698841;82;21555;-72
2023/03/10 02:32:47;;;;;;;8.33;4.37;;;;;;;-2.64;56.89;97883.44;1687040;82;21047;-69
2023/03/10 02:35:15;;;;;;;7.25;4.08;;;;;;;-2.64;57.72;97891.55;1700170;82;21262;-64
2023/03/10 02:37:41;;;;;;;8.50;4.28;;;;;;;-2.69;57.36;97883.98;1700797;82;21607;-72
2023/03/10 02:40:33;;;;;;;8.63;4.87;;;;;;;-2.70;57.34;97882.31;1698533;82;21166;-72
2023/03/10 02:43:14;;;;;;;10.28;4.58;;;;;;;-2.72;57.82;97881.50;1697260;82;21024;-71
2023/03/10 02:45:44;;;;;;;8.78;4.65;;;;;;;-2.71;58.00;97881.92;1713953;82;21044;-71
2023/03/10 02:48:16;;;;;;;10.68;5.65;;;;;;;-2.76;58.32;97867.13;1694928;82;21116;-71
2023/03/10 02:50:45;;;;;;;8.90;5.20;;;;;;;-2.77;58.66;97865.47;1777816;79;21124;-72
2023/03/10 02:53:18;;;;;;;10.68;5.90;;;;;;;-2.76;59.01;97862.02;1784390;78;21068;-71
2023/03/10 02:55:45;;;;;;;9.95;5.62;;;;;;;-2.77;59.12;97859.08;1793383;78;21034;-60
2023/03/10 02:58:13;;;;;;;10.63;5.58;;;;;;;-2.80;59.49;97856.16;1792834;78;21046;-72
2023/03/10 03:00:43;;;;;;;10.18;5.85;;;;;;;-2.82;59.98;97865.56;1788929;78;21111;-67
2023/03/10 03:03:11;;;;;;;9.23;5.62;;;;;;;-2.84;60.05;97857.09;1793693;78;21060;-72
2023/03/10 03:05:38;;;;;;;11.05;6.65;;;;;;;-2.79;60.12;97856.98;1791162;78;20997;-70
2023/03/10 03:08:07;;;;;;;7.90;4.80;;;;;;;-2.80;60.26;97842.52;1791148;78;21061;-69
2023/03/10 03:10:36;;;;;;;11.15;5.42;;;;;;;-2.80;60.50;97839.97;1789945;78;20987;-71
2023/03/10 03:13:05;;;;;;;9.38;4.75;;;;;;;-2.77;60.67;97825.88;1792869;78;21055;-68
2023/03/10 03:15:32;;;;;;;8.13;5.15;;;;;;;-2.79;60.63;97831.00;1776644;78;21833;-72
2023/03/10 03:18:00;;;;;;;6.90;4.83;;;;;;;-2.84;61.12;97813.66;1790224;78;21064;-71
2023/03/10 03:20:30;;;;;;;9.35;5.50;;;;;;;-2.87;61.31;97807.80;1793425;78;20997;-71
2023/03/10 03:22:58;;;;;;;11.35;5.33;;;;;;;-2.87;61.43;97802.69;1792239;78;21587;-70
2023/03/10 03:25:27;;;;;;;7.10;4.92;;;;;;;-2.83;61.98;97805.56;1791532;78;20946;-68
2023/03/10 03:27:54;;;;;;;7.70;5.47;;;;;;;-2.77;61.79;97800.33;1789338;78;21006;-69
2023/03/10 03:30:25;;;;;;;9.63;5.53;;;;;;;-2.79;62.20;97795.69;1792365;78;20993;-66
2023/03/10 03:32:53;;;;;;;7.83;5.45;;;;;;;-2.81;62.30;97787.22;1795234;78;20965;-71
2023/03/10 03:35:25;;;;;;;8.10;5.28;;;;;;;-2.84;62.38;97787.29;1791935;78;20954;-72
2023/03/10 03:37:52;;;;;;;7.85;5.28;;;;;;;-2.85;62.84;97796.67;1789047;78;20970;-70
2023/03/10 03:40:20;;;;;;;10.18;5.70;;;;;;;-2.84;62.74;97782.19;1776200;79;21007;-69
2023/03/10 03:42:50;;;;;;;8.95;5.58;;;;;;;-2.84;63.21;97779.62;1768082;78;21321;-71
2023/03/10 03:45:20;;;;;;;9.90;6.20;;;;;;;-2.84;63.45;97779.62;1747154;81;21572;-64
2023/03/10 03:47:47;;;;;;;10.65;6.10;;;;;;;-2.86;63.76;97782.65;1750057;80;21013;-67
2023/03/10 03:50:16;;;;;;;9.15;5.80;;;;;;;-2.85;64.00;97783.07;1744200;80;21174;-68
2023/03/10 03:52:44;;;;;;;7.60;5.80;;;;;;;-2.84;64.27;97764.30;1739466;81;20970;-62
2023/03/10 03:55:14;;;;;;;9.15;5.80;;;;;;;-2.86;65.01;97766.05;1737899;80;20925;-66
2023/03/10 03:57:43;;;;;;;11.80;6.05;;;;;;;-2.88;65.04;97775.48;1741445;80;21018;-68
2023/03/10 04:00:14;;;;;;;8.53;5.53;;;;;;;-2.89;65.21;97768.68;1743117;80;21545;-71
2023/03/10 04:02:41;;;;;;;7.80;5.78;;;;;;;-2.88;65.20;97747.39;1727544;80;21030;-70
2023/03/10 04:05:08;;;;;;;9.93;6.47;;;;;;;-2.85;65.25;97737.93;1719886;80;20997;-71
2023/03/10 04:07:36;;;;;;;8.95;5.67;;;;;;;-2.84;65.32;97740.88;1744605;81;20995;-69
2023/03/10 04:10:04;;;;;;;6.85;5.67;;;;;;;-2.83;65.42;97737.87;1751667;79;21133;-65
2023/03/10 04:12:31;;;;;;;8.48;6.28;;;;;;;-2.85;65.88;97721.33;1747743;80;21034;-66
2023/03/10 04:14:58;;;;;;;9.55;6.90;;;;;;;-2.86;65.85;97716.25;1743009;81;21029;-65
2023/03/10 04:17:25;;;;;;;11.38;7.80;;;;;;;-2.88;66.62;97721.86;1747275;80;21057;-66
2023/03/10 04:19:52;;;;;;;10.95;6.78;;;;;;;-2.87;66.10;97715.41;1744361;80;21095;-71
2023/03/10 04:22:18;;;;;;;9.70;6.87;;;;;;;-2.87;66.33;97703.09;1744883;80;21310;-71
2023/03/10 04:24:45;;;;;;;8.70;6.12;;;;;;;-2.87;66.76;97710.75;1740990;80;21030;-65
2023/03/10 04:27:11;;;;;;;9.47;6.90;;;;;;;-2.84;66.83;97708.12;1729171;81;21022;-63
2023/03/10 04:29:38;;;;;;;9.13;6.90;;;;;;;-2.87;67.05;97710.75;1724839;81;20982;-70
2023/03/10 04:32:06;;;;;;;8.65;6.87;;;;;;;-2.88;67.33;97711.64;1726620;81;21043;-66
2023/03/10 04:34:34;;;;;;;7.95;7.00;;;;;;;-2.85;67.13;97703.90;1727928;81;21593;-68
2023/03/10 04:37:01;;;;;;;9.25;7.20;;;;;;;-2.85;67.67;97694.95;1719037;81;21053;-61
2023/03/10 04:39:30;;;;;;;10.37;7.20;;;;;;;-2.83;68.04;97694.45;1726369;81;21082;-70
2023/03/10 04:41:56;;;;;;;12.75;8.30;;;;;;;-2.81;67.58;97700.38;1725213;81;21036;-64
2023/03/10 04:44:26;;;;;;;8.75;7.83;;;;;;;-2.88;68.02;97693.77;1717746;82;20972;-70
2023/03/10 04:46:52;;;;;;;10.50;8.00;;;;;;;-2.85;68.36;97693.69;1715051;82;20998;-71
2023/03/10 04:49:19;;;;;;;13.33;9.17;;;;;;;-2.87;68.15;97677.55;1718360;82;20993;-67
2023/03/10 04:51:45;;;;;;;10.30;8.23;;;;;;;-2.88;68.65;97696.31;1720022;82;21015;-71
2023/03/10 04:54:12;;;;;;;11.63;8.80;;;;;;;-2.92;68.94;97673.38;1721228;82;21010;-64
2023/03/10 04:56:39;;;;;;;13.28;8.95;;;;;;;-2.92;68.94;97673.38;1716317;82;21356;-66
2023/03/10 04:59:06;;;;;;;11.80;8.85;;;;;;;-2.93;68.90;97680.66;1717109;82;20977;-64
2023/03/10 05:01:35;;;;;;;13.10;10.13;;;;;;;-2.98;69.08;97668.44;1727302;82;21117;-60
2023/03/10 05:04:04;;;;;;;13.65;9.53;;;;;;;-2.96;69.37;97664.14;1712632;82;21022;-64
2023/03/10 05:06:31;;;;;;;11.22;8.85;;;;;;;-2.93;69.54;97666.61;1716564;81;21120;-62
2023/03/10 05:08:59;;;;;;;11.10;9.15;;;;;;;-2.94;69.71;97648.35;1721708;82;21023;-62
2023/03/10 05:11:26;;;;;;;12.07;9.45;;;;;;;-2.95;69.88;97660.70;1719939;81;21029;-60
2023/03/10 05:13:53;;;;;;;12.07;9.88;;;;;;;-2.95;69.85;97660.70;1713655;82;20997;-60
2023/03/10 05:16:21;;;;;;;11.93;9.45;;;;;;;-2.93;70.15;97653.84;1718690;82;20999;-63
2023/03/10 05:18:48;;;;;;;12.78;10.15;;;;;;;-2.88;69.92;97649.08;1696430;83;20965;-68
2023/03/10 05:21:15;;;;;;;14.15;10.00;;;;;;;-2.88;70.06;97643.52;1716942;82;20967;-70
2023/03/10 05:23:42;;;;;;;18.60;11.30;;;;;;;-2.83;70.07;97653.18;1716337;80;21025;-68
2023/03/10 05:26:10;;;;;;;12.70;10.23;;;;;;;-2.79;70.29;97647.55;1715490;82;21017;-71
2023/03/10 05:28:38;;;;;;;13.95;10.95;;;;;;;-2.76;70.49;97637.23;1716511;82;20937;-71
2023/03/10 05:31:13;;;;;;;;;;;;;;;-2.73;70.54;97626.94;1719928;82;20909;-71
2023/03/10 05:33:40;;;;;;;13.28;10.08;;;;;;;-2.75;71.17;97619.74;1713674;82;20200;-71
2023/03/10 05:36:09;;;;;;;13.28;10.68;;;;;;;-2.72;70.67;97623.48;1719495;82;20941;-70
2023/03/10 05:38:36;;;;;;;12.90;10.90;;;;;;;-2.71;70.77;97626.02;1713520;82;20962;-70
2023/03/10 05:41:10;;;;;;;12.23;10.03;;;;;;;-2.68;70.84;97616.16;1715878;82;20959;-71
2023/03/10 05:43:38;;;;;;;14.70;11.45;;;;;;;-2.70;70.90;97614.08;1712890;82;21059;-73
2023/03/10 05:46:06;;;;;;;12.70;10.03;;;;;;;-2.70;70.98;97606.41;1716489;82;21029;-67
2023/03/10 05:48:33;;;;;;;13.45;10.90;;;;;;;-2.67;71.10;97607.60;1715747;82;20996;-68
2023/03/10 05:51:09;;;;;;;13.78;10.70;;;;;;;-2.68;71.34;97607.22;1704276;82;21042;-67
2023/03/10 05:53:37;;;;;;;12.15;9.55;;;;;;;-2.64;71.40;97600.30;1696593;83;20981;-66
2023/03/10 05:56:13;;;;;;;14.65;10.75;;;;;;;-2.67;71.57;97606.33;1692292;83;21496;-64
2023/03/10 05:58:41;;;;;;;12.65;10.53;;;;;;;-2.67;71.72;97592.27;1699690;83;21450;-66
2023/03/10 06:01:09;;;;;;;13.35;10.08;;;;;;;-2.66;71.93;97585.02;1700885;83;21516;-61
2023/03/10 06:03:37;;;;;;;13.13;10.50;;;;;;;-2.62;71.87;97595.98;1697460;83;21546;-67
2023/03/10 06:06:10;;;;;;;13.13;10.55;;;;;;;-2.60;71.99;97586.56;1693681;82;21040;-68
2023/03/10 06:08:36;;;;;;;14.35;10.65;;;;;;;-2.63;72.05;97578.55;1693065;83;21994;-67
2023/03/10 06:11:05;;;;;;;16.45;10.20;;;;;;;-2.59;72.20;97591.61;1691609;83;21419;-67
2023/03/10 06:13:33;;;;;;;12.70;10.03;;;;;;;-2.55;72.35;97577.89;1693561;83;20993;-66
2023/03/10 06:16:04;;;;;;;14.80;10.05;;;;;;;-2.52;72.32;97575.24;1695540;83;21493;-67
2023/03/10 06:18:32;;;;;;;14.70;10.20;;;;;;;-2.51;72.47;97569.69;1695138;83;21027;-66
2023/03/10 06:20:59;;;;;;;11.90;9.68;;;;;;;-2.49;72.54;97569.20;1696755;83;21027;-68
2023/03/10 06:23:26;;;;;;;13.55;10.30;;;;;;;-2.47;72.69;97570.81;1697241;83;21417;-65
2023/03/10 06:26:08;;;;;;;12.78;10.08;;;;;;;-2.44;72.78;97567.77;1698925;83;21489;-66
2023/03/10 06:28:38;;;;;;;10.93;9.15;;;;;;;-2.40;72.86;97563.81;1702072;83;21093;-65
2023/03/10 06:31:15;;;;;;;10.48;8.93;;;;;;;-2.39;72.80;97565.48;1699787;83;21072;-64
2023/03/10 06:33:42;;;;;;;;;;;;;;;-2.38;72.95;97561.20;1703584;83;21013;-64
2023/03/10 06:36:12;;;;;;;12.05;9.90;;;;;;;-2.38;73.04;97553.11;1703567;83;20169;-68
2023/03/10 06:38:40;;;;;;;13.35;9.98;;;;;;;-2.33;73.02;97554.23;1705815;83;20989;-68
2023/03/10 06:41:07;;;;;;;12.70;9.08;;;;;;;-2.32;73.14;97562.31;1691406;83;21002;-68
2023/03/10 06:43:36;;;;;;;13.90;10.82;;;;;;;-2.30;73.34;97557.97;1698971;83;21081;-64
2023/03/10 06:46:08;;;;;;;16.07;11.50;;;;;;;-2.30;73.33;97551.58;1697236;83;20958;-69
2023/03/10 06:48:36;;;;;;;11.33;8.90;;;;;;;-2.27;73.34;97544.68;1687678;83;21035;-67
2023/03/10 06:51:11;;;;;;;16.12;10.88;;;;;;;-2.24;73.50;97553.98;1681584;83;20994;-70
2023/03/10 06:53:41;;;;;;;11.65;8.75;;;;;;;-2.20;73.50;97542.76;1697652;83;21047;-69
2023/03/10 06:56:14;;;;;;;12.55;9.13;;;;;;;-2.15;73.59;97544.73;1695151;83;21111;-67
2023/03/10 06:58:42;;;;;;;13.08;9.33;;;;;;;-2.10;73.49;97549.27;1689545;83;21087;-63
2023/03/10 07:01:18;;;;;;;10.75;9.63;;;;;;;-2.07;73.49;97547.89;1693227;83;21004;-67
2023/03/10 07:03:45;;;;;;;11.90;9.25;;;;;;;-2.03;73.58;97545.62;1697713;83;21033;-67
2023/03/10 07:06:12;;;;;;;57.60;31.42;;;;;;;-1.97;73.73;97533.53;1687809;83;21052;-67
2023/03/10 07:08:38;;;;;;;18.23;14.57;;;;;;;-1.81;73.65;97541.11;1693909;83;21540;-59
2023/03/10 07:11:05;;;;;;;12.87;9.40;;;;;;;-1.81;73.65;97541.11;1692072;83;21066;-67
2023/03/10 07:13:31;;;;;;;11.60;8.93;;;;;;;-1.78;73.83;97541.45;1686085;83;20968;-73
2023/03/10 07:15:58;;;;;;;13.22;8.33;;;;;;;-1.70;73.79;97528.80;1687278;83;20954;-68
2023/03/10 07:18:28;;;;;;;13.13;8.80;;;;;;;-1.67;73.69;97522.30;1697949;83;20968;-68
2023/03/10 07:20:53;;;;;;;12.45;8.20;;;;;;;-1.60;73.86;97514.82;1697270;83;21064;-75
2023/03/10 07:23:22;;;;;;;12.73;8.45;;;;;;;-1.50;73.88;97513.22;1700198;83;21512;-72
2023/03/10 07:25:55;;;;;;;10.03;7.87;;;;;;;-1.42;73.82;97518.92;1694301;83;21159;-70
2023/03/10 07:28:24;;;;;;;13.35;9.30;;;;;;;-1.36;73.91;97507.18;1708722;83;21026;-72
2023/03/10 07:30:51;;;;;;;52.80;27.17;;;;;;;-1.31;73.87;97506.58;1695101;83;21000;-77
2023/03/10 07:33:17;;;;;;;34.25;17.92;;;;;;;-1.30;73.98;97500.56;1696756;83;20969;-62
2023/03/10 07:35:44;;;;;;;10.85;8.48;;;;;;;-1.19;73.96;97503.58;1690033;83;21062;-70
2023/03/10 07:38:11;;;;;;;9.10;8.05;;;;;;;-1.17;73.90;97502.25;1703056;83;21099;-71
2023/03/10 07:40:41;;;;;;;14.38;9.05;;;;;;;-1.13;74.04;97499.51;1703636;83;21511;-75
2023/03/10 07:43:11;;;;;;;22.27;13.53;;;;;;;-1.07;74.10;97495.06;1695254;83;21074;-78
2023/03/10 07:45:40;;;;;;;10.38;7.60;;;;;;;-1.07;73.93;97496.34;1687421;83;21036;-72
2023/03/10 07:48:06;;;;;;;9.55;7.70;;;;;;;-1.09;73.99;97499.39;1700182;83;20967;-76
2023/03/10 07:50:33;;;;;;;10.45;7.70;;;;;;;-1.09;74.09;97503.23;1695125;82;20992;-73
2023/03/10 07:53:00;;;;;;;11.43;8.47;;;;;;;-1.15;73.90;97491.48;1713212;82;21052;-63
2023/03/10 07:55:26;;;;;;;10.68;8.13;;;;;;;-1.31;74.05;97482.26;1720830;82;21567;-68
2023/03/10 07:57:55;;;;;;;11.25;8.63;;;;;;;-1.25;74.04;97479.47;1715100;82;21009;-70
2023/03/10 08:00:22;;;;;;;11.12;7.60;;;;;;;-1.27;74.19;97477.41;1719703;80;21555;-64
2023/03/10 08:02:51;;;;;;;11.93;9.43;;;;;;;-1.23;74.31;97481.55;1712599;82;21011;-74
2023/03/10 08:05:18;;;;;;;12.50;9.15;;;;;;;-1.14;74.38;97478.64;1716351;82;20965;-74
2023/03/10 08:07:45;;;;;;;11.48;7.97;;;;;;;-1.04;74.27;97462.94;1716601;82;21001;-73
2023/03/10 08:10:12;;;;;;;11.53;8.15;;;;;;;-0.95;74.47;97465.18;1718800;82;20993;-59
2023/03/10 08:12:39;;;;;;;9.23;7.28;;;;;;;-0.88;74.18;97465.32;1709223;82;21048;-66
2023/03/10 08:15:08;;;;;;;10.72;7.20;;;;;;;-0.92;74.09;97459.94;1712366;82;21452;-67
2023/03/10 08:17:34;;;;;;;13.90;8.65;;;;;;;-0.89;74.15;97459.82;1707461;82;21050;-62
2023/03/10 08:20:01;;;;;;;10.93;9.15;;;;;;;-0.85;74.12;97468.22;1729297;80;21164;-72
2023/03/10 08:22:28;;;;;;;9.30;7.67;;;;;;;-0.93;74.13;97453.13;1774664;79;21017;-72
2023/03/10 08:24:55;;;;;;;12.33;7.75;;;;;;;-0.92;74.21;97445.84;1768835;79;21538;-72
2023/03/10 08:27:21;;;;;;;10.57;8.23;;;;;;;-0.95;74.15;97457.49;1770492;79;22193;-66
2023/03/10 08:29:50;;;;;;;9.65;7.37;;;;;;;-1.00;74.25;97441.45;1771278;79;21096;-67
2023/03/10 08:32:18;;;;;;;16.80;8.80;;;;;;;-0.89;74.45;97439.33;1779778;79;20987;-69
2023/03/10 08:34:45;;;;;;;10.23;7.62;;;;;;;-0.84;74.25;97430.16;1767086;79;21549;-68
2023/03/10 08:37:12;;;;;;;;;;;;;;;-0.74;74.45;97420.79;1779782;79;21603;-65
2023/03/10 08:39:40;;;;;;;8.45;7.35;;;;;;;-0.70;74.30;97430.05;1772760;79;20199;-67
2023/03/10 08:42:12;;;;;;;8.63;6.90;;;;;;;-0.75;74.25;97424.26;1763662;79;20986;-64
2023/03/10 08:44:40;;;;;;;10.75;8.35;;;;;;;-0.78;74.22;97438.92;1776772;79;22195;-67
2023/03/10 08:47:08;;;;;;;11.15;7.30;;;;;;;-0.97;74.36;97443.90;1773271;79;21148;-68
2023/03/10 08:49:34;;;;;;;10.32;7.90;;;;;;;-0.94;74.44;97419.45;1774836;79;20955;-69
2023/03/10 08:52:02;;;;;;;10.80;7.67;;;;;;;-0.88;74.62;97423.05;1776131;77;20962;-71
2023/03/10 08:54:29;;;;;;;12.70;8.55;;;;;;;-0.81;74.54;97427.06;1733260;80;21549;-70
2023/03/10 08:56:56;;;;;;;9.25;8.28;;;;;;;-0.88;74.51;97425.61;1779937;78;21546;-67
2023/03/10 08:59:22;;;;;;;11.57;8.10;;;;;;;-0.81;74.69;97424.92;1776894;78;21022;-64
2023/03/10 09:01:49;;;;;;;11.33;8.18;;;;;;;-0.78;74.39;97436.36;1778148;79;22224;-69
2023/03/10 09:04:16;;;;;;;15.40;8.83;;;;;;;-0.87;74.49;97431.11;1781688;78;21144;-72
2023/03/10 09:06:42;;;;;;;9.33;8.35;;;;;;;-0.77;74.64;97417.52;1785931;78;21422;-60
2023/03/10 09:09:11;;;;;;;11.85;9.85;;;;;;;-0.68;74.66;97415.42;1782050;79;21033;-58
2023/03/10 09:11:40;;;;;;;14.07;10.55;;;;;;;-0.55;74.71;97411.11;1780623;78;22323;-57
2023/03/10 09:14:14;;;;;;;27.05;18.20;;;;;;;-0.39;74.68;97407.47;1779735;78;20989;-57
2023/03/10 09:16:40;;;;;;;12.65;9.25;;;;;;;-0.34;74.69;97402.55;1737267;81;21515;-58
2023/03/10 09:19:07;;;;;;;14.43;9.10;;;;;;;-0.16;74.75;97421.95;1781782;79;21051;-57
2023/03/10 09:21:44;;;;;;;9.83;8.40;;;;;;;-0.10;74.45;97407.59;1782280;79;22233;-58
2023/03/10 09:24:11;;;;;;;10.43;7.28;;;;;;;-0.04;74.45;97416.30;1772831;79;21483;-58
2023/03/10 09:26:38;;;;;;;12.70;8.58;;;;;;;-0.03;74.36;97402.57;1780740;79;21558;-61
2023/03/10 09:29:06;;;;;;;15.68;9.85;;;;;;;-0.08;74.33;97417.34;1754171;79;22221;-64
2023/03/10 09:31:36;;;;;;;19.60;10.82;;;;;;;-0.09;74.48;97402.83;1774817;79;20988;-58
2023/03/10 09:34:05;;;;;;;9.65;7.67;;;;;;;-0.10;74.46;97398.61;1779076;79;21060;-57
2023/03/10 09:36:32;;;;;;;11.93;9.13;;;;;;;-0.03;74.63;97400.00;1776444;79;20995;-58
2023/03/10 09:39:01;;;;;;;;;;;;;;;-0.03;74.34;97405.14;1775572;78;20981;-58
2023/03/10 09:42:00;;;;;;;19.15;12.23;;;;;;;-0.07;74.33;97401.05;1776955;79;20116;-65
2023/03/10 09:44:44;;;;;;;12.68;8.75;;;;;;;-0.12;74.28;97395.27;1729208;81;21101;-56
2023/03/10 09:47:16;;;;;;;11.35;7.92;;;;;;;-0.09;74.46;97397.70;1728339;81;21011;-58
2023/03/10 09:49:54;;;;;;;9.35;7.70;;;;;;;-0.02;74.55;97383.73;1727199;81;21140;-58
2023/03/10 09:52:46;;;;;;;10.08;6.95;;;;;;;0.13;74.87;97388.20;1593959;87;21060;-63
2023/03/10 09:55:24;;;;;;;8.20;7.33;;;;;;;0.24;74.45;97386.92;1594020;88;21077;-57
2023/03/10 09:57:55;;;;;;;9.70;6.85;;;;;;;0.30;74.21;97385.37;1591452;88;21020;-62
2023/03/10 10:00:36;;;;;;;10.13;6.70;;;;;;;0.40;74.61;97373.81;1586958;88;21085;-59
2023/03/10 10:03:17;;;;;;;9.05;7.42;;;;;;;0.57;74.35;97376.45;1583171;88;21026;-60
2023/03/10 10:05:47;;;;;;;8.83;7.53;;;;;;;0.55;73.97;97373.12;1551480;90;21069;-59
2023/03/10 10:08:25;;;;;;;11.12;7.60;;;;;;;0.58;74.35;97371.70;1584537;88;21043;-57
2023/03/10 10:10:58;;;;;;;9.13;7.47;;;;;;;0.69;74.42;97370.39;1590053;89;21065;-62
2023/03/10 10:13:29;;;;;;;11.10;7.85;;;;;;;0.86;74.49;97352.47;1593863;88;21057;-58
2023/03/10 10:16:07;;;;;;;11.28;8.05;;;;;;;0.93;74.14;97351.30;1545127;91;21112;-60
2023/03/10 10:18:42;;;;;;;107.05;47.03;;;;;;;1.00;74.16;97352.66;1538839;91;21394;-60
2023/03/10 10:21:20;;;;;;;12.65;8.33;;;;;;;0.96;73.96;97344.73;1585360;88;21109;-58
2023/03/10 10:23:51;;;;;;;9.33;6.75;;;;;;;0.98;74.30;97345.50;1595832;88;21681;-57
2023/03/10 10:26:22;;;;;;;6.03;5.42;;;;;;;0.99;73.85;97353.58;1577570;89;21379;-58
2023/03/10 10:28:58;;;;;;;6.92;5.50;;;;;;;0.95;73.67;97343.50;1591166;84;20947;-58
2023/03/10 10:31:31;;;;;;;6.93;4.90;;;;;;;0.88;73.99;97341.22;1673088;83;21038;-59
2023/03/10 10:34:08;;;;;;;6.05;4.75;;;;;;;1.07;73.97;97350.20;1687724;83;21551;-58
2023/03/10 10:36:41;;;;;;;7.33;5.33;;;;;;;1.28;74.23;97335.94;1679148;83;22429;-58
2023/03/10 10:39:27;;;;;;;5.45;4.70;;;;;;;1.51;74.05;97327.97;1686131;83;21415;-58
2023/03/10 10:41:54;;;;;;;8.27;6.57;;;;;;;1.85;74.00;97323.72;1687561;83;21066;-58
2023/03/10 10:44:21;;;;;;;5.83;4.30;;;;;;;2.10;74.01;97317.30;1689593;82;21043;-59
2023/03/10 10:46:56;;;;;;;4.73;4.03;;;;;;;2.35;74.05;97320.29;1692477;83;21027;-59
2023/03/10 10:49:30;;;;;;;4.67;3.75;;;;;;;2.73;73.68;97319.98;1737696;80;21285;-59
2023/03/10 10:52:04;;;;;;;6.37;3.95;;;;;;;2.75;73.25;97309.60;1755449;79;21073;-61
2023/03/10 10:54:41;;;;;;;5.33;3.52;;;;;;;2.71;73.28;97305.05;1775032;79;21021;-59
2023/03/10 10:57:31;;;;;;;4.23;3.80;;;;;;;2.57;73.17;97301.09;1778220;79;21017;-58
2023/03/10 11:00:31;;;;;;;5.10;3.92;;;;;;;2.52;73.07;97300.51;1770833;79;21010;-63
2023/03/10 11:02:58;;;;;;;7.33;3.98;;;;;;;2.20;73.03;97303.05;1748486;80;21511;-58
2023/03/10 11:05:37;;;;;;;3.80;3.30;;;;;;;1.93;72.78;97297.57;1744445;80;21503;-58
2023/03/10 11:08:31;;;;;;;4.30;3.25;;;;;;;1.73;73.16;97308.88;1740553;80;21534;-59
2023/03/10 11:11:03;;;;;;;4.10;3.47;;;;;;;1.68;73.54;97310.84;1617538;87;21006;-59
2023/03/10 11:13:38;;;;;;;4.58;3.50;;;;;;;1.90;73.46;97311.42;1618192;87;21089;-59
2023/03/10 11:16:15;;;;;;;6.47;3.93;;;;;;;1.96;73.08;97296.98;1609895;87;21600;-59
2023/03/10 11:18:47;;;;;;;5.20;3.87;;;;;;;1.95;72.60;97288.86;1617227;86;21117;-59
2023/03/10 11:21:24;;;;;;;3.92;3.20;;;;;;;1.86;72.97;97279.05;1594294;88;21448;-58
2023/03/10 11:24:09;;;;;;;5.20;3.75;;;;;;;1.80;72.87;97274.23;1615998;87;21065;-62
2023/03/10 11:26:56;;;;;;;4.25;3.30;;;;;;;1.71;72.49;97291.39;1619928;87;21093;-57
2023/03/10 11:29:47;;;;;;;;;;;;;;;1.39;72.29;97282.26;1617197;86;21097;-58
2023/03/10 11:32:54;;;;;;;5.53;4.05;;;;;;;1.27;72.86;97267.45;1619226;88;20140;-60
2023/03/10 11:35:28;;;;;;;5.72;4.03;;;;;;;1.34;72.63;97273.94;1617606;87;21071;-57
2023/03/10 11:38:08;;;;;;;6.70;4.15;;;;;;;1.41;72.99;97277.88;1599037;86;20983;-57
2023/03/10 11:40:53;;;;;;;19.52;10.53;;;;;;;1.43;72.71;97277.36;1621945;85;21127;-59
2023/03/10 11:43:30;;;;;;;5.80;3.83;;;;;;;1.51;72.80;97275.67;1661045;84;21072;-58